createdAt,value
2023-04-27T00:00:45.729Z,2.20
2023-04-27T00:03:14.236Z,2.33
2023-04-27T00:05:47.746Z,2.80
2023-04-27T00:08:18.287Z,2.60
2023-04-27T00:10:49.062Z,2.40
2023-04-27T00:13:17.229Z,2.83
2023-04-27T00:15:45.764Z,2.35
2023-04-27T00:18:14.061Z,2.30
2023-04-27T00:20:45.712Z,2.35
2023-04-27T00:23:19.028Z,2.20
2023-04-27T00:25:53.112Z,2.50
2023-04-27T00:28:25.292Z,2.65
2023-04-27T00:31:04.363Z,2.33
2023-04-27T00:33:32.701Z,2.50
2023-04-27T00:36:17.644Z,2.40
2023-04-27T00:38:52.764Z,2.28
2023-04-27T00:41:30.414Z,2.30
2023-04-27T00:44:08.318Z,2.28
2023-04-27T00:46:37.329Z,1.95
2023-04-27T00:49:05.435Z,2.13
2023-04-27T00:51:36.687Z,1.95
2023-04-27T00:54:06.388Z,2.10
2023-04-27T00:56:39.303Z,1.90
2023-04-27T00:59:14.517Z,2.30
2023-04-27T01:01:58.454Z,1.95
2023-04-27T01:04:35.209Z,2.20
2023-04-27T01:07:18.650Z,1.90
2023-04-27T01:09:58.612Z,1.77
2023-04-27T01:12:39.870Z,1.80
2023-04-27T01:15:33.982Z,1.90
2023-04-27T01:18:14.029Z,1.60
2023-04-27T01:20:55.116Z,1.90
2023-04-27T01:26:07.228Z,1.75
2023-04-27T01:28:39.574Z,1.80
2023-04-27T01:31:10.666Z,1.67
2023-04-27T01:33:50.589Z,1.55
2023-04-27T01:36:28.287Z,1.65
2023-04-27T01:39:06.041Z,1.77
2023-04-27T01:41:45.966Z,1.60
2023-04-27T01:44:17.286Z,1.88
2023-04-27T01:46:45.614Z,1.52
2023-04-27T01:49:14.437Z,1.65
2023-04-27T01:51:43.215Z,1.40
2023-04-27T01:54:12.627Z,1.30
2023-04-27T01:56:46.478Z,1.30
2023-04-27T01:59:28.836Z,1.50
2023-04-27T02:01:57.424Z,1.70
2023-04-27T02:04:31.553Z,1.65
2023-04-27T02:07:00.865Z,1.83
2023-04-27T02:09:30.205Z,1.30
2023-04-27T02:11:58.624Z,1.60
2023-04-27T02:14:27.305Z,1.60
2023-04-27T02:16:55.156Z,1.40
2023-04-27T02:19:25.390Z,1.27
2023-04-27T02:21:53.510Z,1.40
2023-04-27T02:24:21.735Z,1.70
2023-04-27T02:26:50.006Z,1.90
2023-04-27T02:29:20.617Z,1.83
2023-04-27T02:31:49.555Z,1.88
2023-04-27T02:34:17.702Z,1.80
2023-04-27T02:36:48.360Z,1.80
2023-04-27T02:39:16.679Z,1.42
2023-04-27T02:41:44.653Z,1.70
2023-04-27T02:44:12.848Z,1.38
2023-04-27T02:46:43.109Z,1.48
2023-04-27T02:49:11.725Z,1.02
2023-04-27T02:51:43.248Z,1.15
2023-04-27T02:54:11.852Z,1.17
2023-04-27T02:56:43.305Z,1.08
2023-04-27T02:59:19.086Z,1.00
2023-04-27T03:04:47.205Z,1.30
2023-04-27T03:07:15.509Z,1.23
2023-04-27T03:09:47.102Z,0.93
2023-04-27T03:12:25.391Z,1.13
2023-04-27T03:15:00.232Z,1.20
2023-04-27T03:17:28.716Z,1.30
2023-04-27T03:20:07.102Z,1.23
2023-04-27T03:22:40.139Z,1.17
2023-04-27T03:25:15.089Z,1.23
2023-04-27T03:30:41.017Z,1.30
2023-04-27T03:33:10.377Z,1.08
2023-04-27T03:36:02.212Z,1.23
2023-04-27T03:38:44.437Z,1.10
2023-04-27T03:41:22.795Z,1.45
2023-04-27T03:44:05.593Z,1.40
2023-04-27T03:46:49.502Z,1.20
2023-04-27T03:49:25.703Z,1.20
2023-04-27T03:52:01.979Z,1.30
2023-04-27T03:54:43.127Z,1.23
2023-04-27T03:57:18.488Z,1.50
2023-04-27T03:59:52.356Z,1.23
2023-04-27T04:02:24.341Z,1.17
2023-04-27T04:04:55.028Z,1.50
2023-04-27T04:07:23.548Z,1.40
2023-04-27T04:09:53.991Z,1.40
2023-04-27T04:12:32.311Z,1.17
2023-04-27T04:15:08.280Z,1.60
2023-04-27T04:17:47.809Z,1.40
2023-04-27T04:20:21.989Z,1.30
2023-04-27T04:23:01.368Z,1.40
2023-04-27T04:25:34.707Z,1.40
2023-04-27T04:28:11.601Z,1.40
2023-04-27T04:30:43.678Z,1.40
2023-04-27T04:33:33.643Z,1.30
2023-04-27T04:36:13.494Z,1.77
2023-04-27T04:38:52.786Z,1.70
2023-04-27T04:41:26.268Z,1.70
2023-04-27T04:44:07.500Z,1.40
2023-04-27T04:46:46.845Z,1.58
2023-04-27T04:50:04.886Z,1.23
2023-04-27T04:55:21.093Z,1.60
2023-04-27T04:58:05.665Z,1.20
2023-04-27T05:00:37.191Z,1.60
2023-04-27T05:03:14.413Z,1.38
2023-04-27T05:08:40.930Z,2.20
2023-04-27T05:11:11.881Z,1.92
2023-04-27T05:13:54.345Z,1.98
2023-04-27T05:16:24.255Z,1.60
2023-04-27T05:19:01.686Z,2.05
2023-04-27T05:21:29.640Z,3.28
2023-04-27T05:24:01.081Z,4.63
2023-04-27T05:26:29.246Z,3.60
2023-04-27T05:28:57.180Z,3.05
2023-04-27T05:31:27.075Z,2.70
2023-04-27T05:33:55.367Z,2.53
2023-04-27T05:36:26.009Z,3.10
2023-04-27T05:38:54.016Z,2.97
2023-04-27T05:41:22.082Z,3.38
2023-04-27T05:43:50.045Z,3.00
2023-04-27T05:46:19.619Z,2.88
2023-04-27T05:48:47.586Z,3.30
2023-04-27T05:51:15.620Z,3.63
2023-04-27T05:53:43.338Z,3.08
2023-04-27T05:56:12.080Z,2.65
2023-04-27T05:58:40.032Z,3.38
2023-04-27T06:01:08.425Z,3.13
2023-04-27T06:03:36.528Z,3.28
2023-04-27T06:06:06.266Z,3.50
2023-04-27T06:08:37.482Z,2.95
2023-04-27T06:11:07.144Z,2.58
2023-04-27T06:13:34.918Z,2.60
2023-04-27T06:16:02.744Z,2.88
2023-04-27T06:18:31.753Z,2.97
2023-04-27T06:21:01.785Z,2.60
2023-04-27T06:23:29.819Z,2.78
2023-04-27T06:25:59.055Z,2.40
2023-04-27T06:28:26.823Z,3.25
2023-04-27T06:30:55.158Z,2.92
2023-04-27T06:33:22.793Z,3.45
2023-04-27T06:35:51.047Z,3.22
2023-04-27T06:38:18.681Z,3.83
2023-04-27T06:40:51.399Z,3.90
2023-04-27T06:43:19.496Z,2.78
2023-04-27T06:45:47.299Z,3.17
2023-04-27T06:48:15.248Z,3.28
2023-04-27T06:50:43.807Z,3.28
2023-04-27T06:53:11.845Z,2.22
2023-04-27T06:55:41.668Z,2.08
2023-04-27T06:58:11.127Z,2.13
2023-04-27T07:00:39.260Z,1.85
2023-04-27T07:03:07.244Z,2.00
2023-04-27T07:05:35.208Z,1.65
2023-04-27T07:08:07.004Z,1.88
2023-04-27T07:10:36.512Z,1.75
2023-04-27T07:13:04.855Z,1.50
2023-04-27T07:15:34.112Z,1.63
2023-04-27T07:18:01.814Z,1.13
2023-04-27T07:20:29.706Z,1.60
2023-04-27T07:22:57.429Z,1.25
2023-04-27T07:25:25.930Z,1.20
2023-04-27T07:27:53.705Z,1.10
2023-04-27T07:30:21.961Z,1.05
2023-04-27T07:32:55.041Z,1.02
2023-04-27T07:35:22.853Z,1.15
2023-04-27T07:37:52.168Z,1.10
2023-04-27T07:40:20.051Z,1.00
2023-04-27T07:42:48.232Z,1.48
2023-04-27T07:45:18.150Z,1.52
2023-04-27T07:47:54.463Z,1.25
2023-04-27T07:50:25.014Z,1.80
2023-04-27T07:52:54.963Z,1.98
2023-04-27T07:55:23.678Z,2.00
2023-04-27T07:57:53.807Z,2.30
2023-04-27T08:00:22.437Z,2.53
2023-04-27T08:02:51.072Z,2.40
2023-04-27T08:05:19.675Z,2.20
2023-04-27T08:07:47.853Z,2.30
2023-04-27T08:10:16.258Z,1.90
2023-04-27T08:12:43.997Z,2.13
2023-04-27T08:15:12.108Z,1.98
2023-04-27T08:17:43.966Z,1.92
2023-04-27T08:20:12.078Z,1.63
2023-04-27T08:22:40.814Z,1.25
2023-04-27T08:25:10.002Z,1.50
2023-04-27T08:27:39.142Z,1.63
2023-04-27T08:30:07.855Z,1.80
2023-04-27T08:32:35.775Z,1.70
2023-04-27T08:35:04.611Z,1.42
2023-04-27T08:37:32.584Z,1.77
2023-04-27T08:40:00.442Z,2.10
2023-04-27T08:42:28.380Z,1.63
2023-04-27T08:44:56.923Z,1.60
2023-04-27T08:47:35.090Z,1.63
2023-04-27T08:50:11.108Z,1.80
2023-04-27T08:52:38.941Z,1.42
2023-04-27T08:55:08.551Z,1.70
2023-04-27T08:57:37.103Z,1.70
2023-04-27T09:00:14.801Z,1.80
2023-04-27T09:02:47.334Z,1.55
2023-04-27T09:05:16.977Z,1.30
2023-04-27T09:08:01.733Z,1.50
2023-04-27T09:10:29.815Z,1.70
2023-04-27T09:13:01.374Z,1.25
2023-04-27T09:15:29.487Z,0.98
2023-04-27T09:17:58.068Z,0.98
2023-04-27T09:20:27.548Z,1.00
2023-04-27T09:22:58.709Z,1.00
2023-04-27T09:25:32.462Z,1.70
2023-04-27T09:28:01.447Z,1.13
2023-04-27T09:30:30.294Z,1.10
2023-04-27T09:32:59.428Z,1.38
2023-04-27T09:35:36.222Z,1.50
2023-04-27T09:38:04.115Z,1.23
2023-04-27T09:40:32.147Z,1.40
2023-04-27T09:43:03.821Z,1.42
2023-04-27T09:45:34.193Z,1.38
2023-04-27T09:48:02.938Z,1.60
2023-04-27T09:50:31.566Z,1.33
2023-04-27T09:52:59.268Z,1.75
2023-04-27T09:55:40.670Z,1.27
2023-04-27T09:58:33.279Z,1.25
2023-04-27T10:01:26.812Z,1.45
2023-04-27T10:04:04.980Z,1.73
2023-04-27T10:07:09.800Z,1.50
2023-04-27T10:09:41.877Z,1.55
2023-04-27T10:12:39.068Z,1.38
2023-04-27T10:15:18.004Z,1.70
2023-04-27T10:17:50.763Z,1.48
2023-04-27T10:20:30.315Z,1.20
2023-04-27T10:22:59.225Z,1.20
2023-04-27T10:25:29.967Z,1.30
2023-04-27T10:28:02.842Z,1.48
2023-04-27T10:30:38.050Z,1.20
2023-04-27T10:33:08.770Z,0.75
2023-04-27T10:35:38.114Z,0.90
2023-04-27T10:38:10.669Z,1.10
2023-04-27T10:40:38.964Z,1.40
2023-04-27T10:43:17.948Z,1.00
2023-04-27T10:45:45.746Z,1.30
2023-04-27T10:48:15.907Z,1.40
2023-04-27T10:50:47.078Z,1.65
2023-04-27T10:53:15.943Z,1.95
2023-04-27T10:55:43.837Z,2.13
2023-04-27T10:58:11.877Z,1.58
2023-04-27T11:00:45.045Z,2.03
2023-04-27T11:03:19.719Z,2.22
2023-04-27T11:05:50.004Z,2.63
2023-04-27T11:08:22.516Z,2.97
2023-04-27T11:10:51.705Z,2.53
2023-04-27T11:13:21.671Z,2.10
2023-04-27T11:15:51.210Z,1.70
2023-04-27T11:18:20.940Z,1.40
2023-04-27T11:20:51.016Z,1.90
2023-04-27T11:23:25.446Z,1.73
2023-04-27T11:25:53.659Z,1.40
2023-04-27T11:28:22.616Z,1.48
2023-04-27T11:31:00.241Z,2.55
2023-04-27T11:33:28.547Z,2.55
2023-04-27T11:35:56.848Z,2.22
2023-04-27T11:38:25.081Z,2.20
2023-04-27T11:41:07.899Z,2.78
2023-04-27T11:43:41.718Z,2.08
2023-04-27T11:46:13.411Z,1.80
2023-04-27T11:48:41.811Z,1.75
2023-04-27T11:51:11.427Z,1.70
2023-04-27T11:53:40.051Z,1.73
2023-04-27T11:56:11.340Z,2.50
2023-04-27T11:58:40.276Z,2.50
2023-04-27T12:01:10.815Z,2.42
2023-04-27T12:03:38.974Z,1.90
2023-04-27T12:06:27.500Z,1.52
2023-04-27T12:08:57.328Z,1.45
2023-04-27T12:11:28.156Z,1.65
2023-04-27T12:13:57.562Z,1.30
2023-04-27T12:16:25.353Z,1.25
2023-04-27T12:18:53.571Z,1.67
2023-04-27T12:21:21.551Z,1.42
2023-04-27T12:23:49.511Z,2.10
2023-04-27T12:26:17.651Z,2.50
2023-04-27T12:28:45.390Z,2.35
2023-04-27T12:31:23.685Z,1.70
2023-04-27T12:33:54.192Z,1.65
2023-04-27T12:36:23.297Z,1.88
2023-04-27T12:38:51.876Z,2.40
2023-04-27T12:41:19.623Z,2.10
2023-04-27T12:43:48.812Z,1.80
2023-04-27T12:46:18.350Z,2.03
2023-04-27T12:48:46.608Z,2.67
2023-04-27T12:51:15.062Z,2.75
2023-04-27T12:53:42.822Z,3.28
2023-04-27T12:56:10.679Z,2.97
2023-04-27T12:58:38.574Z,2.50
2023-04-27T13:01:12.466Z,2.85
2023-04-27T13:03:44.686Z,1.90
2023-04-27T13:06:12.913Z,2.00
2023-04-27T13:08:41.898Z,1.55
2023-04-27T13:11:10.074Z,1.98
2023-04-27T13:13:37.928Z,1.85
2023-04-27T13:16:05.723Z,1.52
2023-04-27T13:18:35.083Z,1.60
2023-04-27T13:21:04.319Z,1.92
2023-04-27T13:23:32.595Z,2.13
2023-04-27T13:26:01.510Z,1.90
2023-04-27T13:28:30.234Z,1.80
2023-04-27T13:31:00.086Z,1.30
2023-04-27T13:33:28.306Z,1.13
2023-04-27T13:35:56.139Z,1.75
2023-04-27T13:38:24.071Z,1.70
2023-04-27T13:40:51.777Z,1.40
2023-04-27T13:43:19.557Z,1.77
2023-04-27T13:45:47.351Z,2.03
2023-04-27T13:48:15.093Z,1.67
2023-04-27T13:50:46.027Z,1.70
2023-04-27T13:53:16.403Z,1.83
2023-04-27T13:55:46.716Z,2.40
2023-04-27T13:58:14.686Z,2.50
2023-04-27T14:00:42.876Z,3.03
2023-04-27T14:03:11.032Z,2.33
2023-04-27T14:05:44.233Z,2.05
2023-04-27T14:08:14.648Z,1.50
2023-04-27T14:10:46.130Z,1.40
2023-04-27T14:13:17.665Z,1.33
2023-04-27T14:15:46.425Z,1.42
2023-04-27T14:18:14.733Z,1.83
2023-04-27T14:20:45.783Z,2.55
2023-04-27T14:23:17.185Z,2.75
2023-04-27T14:25:48.241Z,2.40
2023-04-27T14:28:16.452Z,2.90
2023-04-27T14:30:49.335Z,2.35
2023-04-27T14:33:20.575Z,1.70
2023-04-27T14:35:48.794Z,2.08
2023-04-27T14:38:16.799Z,2.03
2023-04-27T14:40:44.956Z,2.08
2023-04-27T14:43:13.663Z,1.55
2023-04-27T14:45:51.559Z,1.40
2023-04-27T14:48:22.288Z,1.20
2023-04-27T14:50:50.620Z,1.40
2023-04-27T14:53:18.625Z,1.42
2023-04-27T14:55:46.877Z,1.75
2023-04-27T14:58:15.747Z,1.90
2023-04-27T15:00:45.098Z,1.60
2023-04-27T15:03:13.211Z,1.30
2023-04-27T15:05:41.386Z,1.23
2023-04-27T15:08:09.321Z,1.30
2023-04-27T15:10:37.622Z,1.55
2023-04-27T15:13:05.614Z,1.33
2023-04-27T15:15:33.607Z,1.50
2023-04-27T15:18:01.820Z,1.13
2023-04-27T15:20:29.783Z,1.30
2023-04-27T15:23:02.354Z,1.52
2023-04-27T15:25:30.382Z,2.10
2023-04-27T15:27:58.609Z,2.88
2023-04-27T15:30:29.528Z,2.67
2023-04-27T15:32:57.656Z,2.70
2023-04-27T15:35:26.093Z,2.45
2023-04-27T15:37:54.153Z,2.20
2023-04-27T15:40:22.176Z,2.30
2023-04-27T15:42:50.795Z,2.30
2023-04-27T15:45:18.975Z,1.90
2023-04-27T15:47:47.096Z,2.25
2023-04-27T15:50:15.154Z,1.73
2023-04-27T15:52:42.856Z,1.45
2023-04-27T15:55:10.698Z,1.60
2023-04-27T15:57:38.498Z,1.92
2023-04-27T16:00:10.346Z,1.52
2023-04-27T16:02:41.097Z,1.42
2023-04-27T16:05:10.064Z,1.73
2023-04-27T16:07:40.010Z,1.80
2023-04-27T16:10:08.715Z,1.50
2023-04-27T16:12:36.786Z,1.38
2023-04-27T16:15:04.970Z,1.25
2023-04-27T16:17:37.697Z,1.30
2023-04-27T16:20:06.982Z,1.42
2023-04-27T16:22:35.987Z,2.45
2023-04-27T16:25:06.878Z,1.88
2023-04-27T16:27:34.676Z,1.30
2023-04-27T16:30:02.948Z,1.42
2023-04-27T16:32:32.499Z,1.13
2023-04-27T16:35:01.962Z,1.35
2023-04-27T16:37:29.935Z,1.33
2023-04-27T16:40:01.820Z,1.45
2023-04-27T16:42:29.620Z,1.33
2023-04-27T16:44:57.671Z,1.40
2023-04-27T16:47:25.628Z,1.60
2023-04-27T16:49:53.427Z,1.45
2023-04-27T16:52:21.278Z,1.38
2023-04-27T16:54:49.242Z,1.70
2023-04-27T16:57:17.495Z,1.65
2023-04-27T16:59:45.262Z,1.55
2023-04-27T17:02:23.850Z,1.30
2023-04-27T17:04:53.392Z,1.50
2023-04-27T17:07:21.449Z,1.75
2023-04-27T17:09:49.361Z,1.52
2023-04-27T17:12:17.594Z,1.75
2023-04-27T17:14:45.588Z,2.08
2023-04-27T17:17:13.658Z,2.15
2023-04-27T17:19:41.929Z,2.40
2023-04-27T17:22:13.470Z,2.20
2023-04-27T17:24:41.707Z,2.22
2023-04-27T17:27:09.865Z,2.75
2023-04-27T17:29:38.352Z,2.45
2023-04-27T17:32:06.448Z,2.47
2023-04-27T17:34:34.380Z,2.30
2023-04-27T17:37:02.585Z,2.28
2023-04-27T17:39:30.656Z,2.90
2023-04-27T17:41:58.578Z,3.55
2023-04-27T17:44:26.492Z,4.32
2023-04-27T17:46:54.686Z,4.57
2023-04-27T17:49:22.621Z,5.30
2023-04-27T17:51:50.471Z,6.22
2023-04-27T17:54:18.362Z,5.65
2023-04-27T17:56:46.872Z,4.75
2023-04-27T17:59:14.874Z,4.65
2023-04-27T18:01:43.128Z,4.28
2023-04-27T18:04:15.066Z,9.52
2023-04-27T18:06:42.905Z,11.30
2023-04-27T18:09:10.885Z,9.90
2023-04-27T18:11:40.410Z,8.27
2023-04-27T18:14:11.840Z,7.20
2023-04-27T18:16:39.826Z,7.15
2023-04-27T18:19:10.645Z,7.80
2023-04-27T18:21:46.607Z,7.25
2023-04-27T18:24:17.832Z,6.00
2023-04-27T18:27:05.339Z,5.45
2023-04-27T18:29:35.213Z,5.50
2023-04-27T18:32:10.222Z,4.60
2023-04-27T18:34:40.554Z,4.85
2023-04-27T18:37:12.511Z,5.53
2023-04-27T18:39:45.909Z,7.28
2023-04-27T18:42:20.580Z,7.38
2023-04-27T18:45:02.856Z,8.85
2023-04-27T18:47:33.856Z,11.32
2023-04-27T18:50:17.485Z,12.82
2023-04-27T18:53:15.002Z,13.93
2023-04-27T18:55:43.460Z,13.02
2023-04-27T18:58:22.812Z,12.82
2023-04-27T19:00:57.276Z,12.15
2023-04-27T19:03:26.979Z,10.40
2023-04-27T19:05:59.085Z,9.00
2023-04-27T19:08:29.286Z,10.18
2023-04-27T19:11:00.325Z,9.27
2023-04-27T19:13:33.165Z,10.55
2023-04-27T19:16:02.380Z,9.75
2023-04-27T19:18:30.761Z,9.38
2023-04-27T19:21:04.796Z,7.80
2023-04-27T19:23:36.072Z,8.15
2023-04-27T19:26:12.411Z,7.55
2023-04-27T19:28:41.569Z,8.15
2023-04-27T19:31:10.559Z,9.52
2023-04-27T19:36:14.349Z,10.65
2023-04-27T19:38:42.259Z,12.48
2023-04-27T19:41:10.282Z,13.80
2023-04-27T19:43:38.125Z,12.23
2023-04-27T19:46:08.451Z,11.27
2023-04-27T19:48:41.785Z,8.40
2023-04-27T19:51:11.178Z,8.65
2023-04-27T19:53:44.599Z,7.07
2023-04-27T19:56:17.054Z,7.10
2023-04-27T19:59:00.390Z,10.30
2023-04-27T20:01:48.402Z,14.32
2023-04-27T20:04:25.209Z,17.25
2023-04-27T20:09:55.198Z,17.80
2023-04-27T20:12:54.445Z,15.60
2023-04-27T20:15:31.658Z,12.90
2023-04-27T20:18:06.626Z,16.30
2023-04-27T20:20:39.057Z,15.85
2023-04-27T20:23:10.128Z,15.35
2023-04-27T20:25:38.925Z,13.07
2023-04-27T20:28:13.127Z,12.02
2023-04-27T20:30:52.267Z,10.55
2023-04-27T20:33:32.952Z,9.60
2023-04-27T20:36:21.702Z,8.32
2023-04-27T20:38:56.952Z,7.13
2023-04-27T20:41:38.686Z,7.75
2023-04-27T20:44:27.949Z,7.55
2023-04-27T20:52:41.666Z,23.70
2023-04-27T20:55:15.336Z,23.02
2023-04-27T20:58:05.214Z,17.33
2023-04-27T21:01:28.974Z,11.98
2023-04-27T21:06:48.036Z,9.02
2023-04-27T21:09:16.016Z,10.23
2023-04-27T21:11:43.972Z,11.32
2023-04-27T21:14:11.956Z,12.95
2023-04-27T21:17:29.656Z,15.00
2023-04-27T21:19:45.895Z,16.48
2023-04-27T21:22:18.945Z,16.60
2023-04-27T21:24:52.933Z,15.87
2023-04-27T21:27:21.425Z,13.02
2023-04-27T21:29:51.683Z,10.32
2023-04-27T21:32:22.514Z,8.43
2023-04-27T21:34:54.220Z,8.77
2023-04-27T21:37:22.490Z,7.38
2023-04-27T21:39:58.772Z,7.82
2023-04-27T21:42:34.533Z,7.97
2023-04-27T21:45:27.576Z,8.73
2023-04-27T21:47:58.714Z,7.45
2023-04-27T21:50:41.475Z,7.50
2023-04-27T21:53:23.388Z,7.57
2023-04-27T21:56:04.512Z,6.60
2023-04-27T21:58:43.887Z,7.82
2023-04-27T22:01:29.983Z,7.60
2023-04-27T22:04:07.387Z,7.35
2023-04-27T22:06:39.739Z,7.43
2023-04-27T22:09:10.344Z,8.65
2023-04-27T22:11:38.699Z,7.50
2023-04-27T22:14:10.296Z,6.75
2023-04-27T22:16:41.437Z,7.28
2023-04-27T22:19:14.126Z,7.60
2023-04-27T22:21:43.784Z,6.72
2023-04-27T22:24:14.005Z,6.43
2023-04-27T22:26:51.394Z,6.53
2023-04-27T22:29:21.939Z,6.72
2023-04-27T22:31:54.054Z,6.07
2023-04-27T22:34:26.476Z,5.65
2023-04-27T22:37:01.394Z,5.78
2023-04-27T22:39:37.105Z,6.05
2023-04-27T22:42:07.527Z,5.78
2023-04-27T22:44:38.834Z,6.35
2023-04-27T22:47:13.100Z,6.63
2023-04-27T22:49:47.295Z,5.82
2023-04-27T22:52:39.226Z,5.22
2023-04-27T22:55:20.616Z,5.22
2023-04-27T22:58:07.397Z,6.03
2023-04-27T23:00:44.016Z,5.30
2023-04-27T23:03:41.158Z,5.13
2023-04-27T23:06:14.730Z,4.63
2023-04-27T23:08:47.284Z,5.07
2023-04-27T23:11:16.863Z,4.32
2023-04-27T23:13:54.905Z,4.50
2023-04-27T23:16:27.626Z,3.80
2023-04-27T23:18:56.016Z,4.60
2023-04-27T23:21:25.637Z,4.15
2023-04-27T23:23:56.628Z,4.18
2023-04-27T23:26:24.747Z,4.35
2023-04-27T23:28:52.786Z,4.00
2023-04-27T23:31:21.124Z,4.35
2023-04-27T23:33:49.401Z,3.75
2023-04-27T23:36:17.646Z,3.70
2023-04-27T23:38:51.835Z,3.95
2023-04-27T23:41:21.201Z,5.50
2023-04-27T23:43:51.095Z,4.63
2023-04-27T23:46:19.391Z,5.00
2023-04-27T23:48:50.318Z,4.97
2023-04-27T23:51:18.243Z,4.57
2023-04-27T23:53:47.649Z,4.22
2023-04-27T23:56:19.835Z,4.03
2023-04-27T23:58:47.833Z,4.18
